createdAt,value
2019-01-28T00:00:13.734Z,985.09
2019-01-28T00:01:13.683Z,985.11
2019-01-28T00:02:13.635Z,985.01
2019-01-28T00:03:13.592Z,985.09
2019-01-28T00:04:13.536Z,985.12
2019-01-28T00:05:13.485Z,985.13
2019-01-28T00:06:13.437Z,985.10
2019-01-28T00:07:13.391Z,985.06
2019-01-28T00:08:13.335Z,985.08
2019-01-28T00:09:13.285Z,985.08
2019-01-28T00:10:13.240Z,985.02
2019-01-28T00:11:13.186Z,985.08
2019-01-28T00:12:14.049Z,985.07
2019-01-28T00:13:13.085Z,985.06
2019-01-28T00:14:13.037Z,985.07
2019-01-28T00:15:12.984Z,985.08
2019-01-28T00:16:12.934Z,985.19
2019-01-28T00:17:12.893Z,985.08
2019-01-28T00:18:12.836Z,985.02
2019-01-28T00:19:12.815Z,985.16
2019-01-28T00:20:12.737Z,985.07
2019-01-28T00:21:12.685Z,985.04
2019-01-28T00:22:12.636Z,985.05
2019-01-28T00:23:12.586Z,984.95
2019-01-28T00:24:12.535Z,985.03
2019-01-28T00:25:12.483Z,985.02
2019-01-28T00:26:12.435Z,985.05
2019-01-28T00:27:12.386Z,985.05
2019-01-28T00:28:12.341Z,985.03
2019-01-28T00:29:12.284Z,985.03
2019-01-28T00:30:12.242Z,985.02
2019-01-28T00:31:12.184Z,984.96
2019-01-28T00:32:12.139Z,985.03
2019-01-28T00:33:12.084Z,984.92
2019-01-28T00:34:12.042Z,985.01
2019-01-28T00:35:11.985Z,984.90
2019-01-28T00:36:11.944Z,984.94
2019-01-28T00:37:11.885Z,984.93
2019-01-28T00:38:11.844Z,984.88
2019-01-28T00:39:11.791Z,984.93
2019-01-28T00:40:11.738Z,984.89
2019-01-28T00:41:11.695Z,984.93
2019-01-28T00:42:11.634Z,984.95
2019-01-28T00:43:11.587Z,984.92
2019-01-28T00:44:11.540Z,984.89
2019-01-28T00:45:11.487Z,984.88
2019-01-28T00:46:11.436Z,984.85
2019-01-28T00:47:11.388Z,984.86
2019-01-28T00:48:11.343Z,984.93
2019-01-28T00:49:11.289Z,984.89
2019-01-28T00:50:11.241Z,984.93
2019-01-28T00:51:11.190Z,984.81
2019-01-28T00:52:11.136Z,985.02
2019-01-28T00:53:11.085Z,984.90
2019-01-28T00:54:11.035Z,984.90
2019-01-28T00:55:10.985Z,984.87
2019-01-28T00:56:10.945Z,984.79
2019-01-28T00:57:10.891Z,984.77
2019-01-28T00:58:10.851Z,984.89
2019-01-28T00:59:10.796Z,984.86
2019-01-28T01:00:10.780Z,984.71
2019-01-28T01:01:10.684Z,984.92
2019-01-28T01:02:10.634Z,984.86
2019-01-28T01:03:10.586Z,984.86
2019-01-28T01:04:10.537Z,984.83
2019-01-28T01:05:10.483Z,984.81
2019-01-28T01:06:10.438Z,984.84
2019-01-28T01:07:10.384Z,984.84
2019-01-28T01:08:10.343Z,984.85
2019-01-28T01:09:10.284Z,984.81
2019-01-28T01:10:10.235Z,984.87
2019-01-28T01:11:10.186Z,984.71
2019-01-28T01:12:10.132Z,984.80
2019-01-28T01:13:10.080Z,984.80
2019-01-28T01:14:10.035Z,984.80
2019-01-28T01:15:09.983Z,984.86
2019-01-28T01:16:09.931Z,984.76
2019-01-28T01:17:09.883Z,984.74
2019-01-28T01:18:09.838Z,984.67
2019-01-28T01:19:09.785Z,984.79
2019-01-28T01:20:09.737Z,984.74
2019-01-28T01:21:09.687Z,984.72
2019-01-28T01:22:09.633Z,984.78
2019-01-28T01:23:09.591Z,984.74
2019-01-28T01:24:09.534Z,984.61
2019-01-28T01:25:09.479Z,984.66
2019-01-28T01:26:09.429Z,984.54
2019-01-28T01:27:09.382Z,984.59
2019-01-28T01:28:09.341Z,984.63
2019-01-28T01:29:09.281Z,984.67
2019-01-28T01:30:09.230Z,984.61
2019-01-28T01:31:09.178Z,984.60
2019-01-28T01:32:09.128Z,984.48
2019-01-28T01:33:09.095Z,984.57
2019-01-28T01:34:09.028Z,984.54
2019-01-28T01:35:08.978Z,984.47
2019-01-28T01:36:08.932Z,984.58
2019-01-28T01:37:08.877Z,984.58
2019-01-28T01:38:08.855Z,984.54
2019-01-28T01:39:08.779Z,984.59
2019-01-28T01:40:08.731Z,984.48
2019-01-28T01:41:08.698Z,984.56
2019-01-28T01:42:08.628Z,984.46
2019-01-28T01:43:08.577Z,984.51
2019-01-28T01:44:08.525Z,984.55
2019-01-28T01:45:08.478Z,984.51
2019-01-28T01:46:08.426Z,984.53
2019-01-28T01:47:08.378Z,984.55
2019-01-28T01:48:08.328Z,984.54
2019-01-28T01:49:08.274Z,984.44
2019-01-28T01:50:08.229Z,984.51
2019-01-28T01:51:08.176Z,984.49
2019-01-28T01:52:08.124Z,984.48
2019-01-28T01:53:08.075Z,984.39
2019-01-28T01:54:08.026Z,984.51
2019-01-28T01:55:07.974Z,984.43
2019-01-28T01:56:07.925Z,984.31
2019-01-28T01:57:07.872Z,984.35
2019-01-28T01:58:07.822Z,984.33
2019-01-28T01:59:07.773Z,984.37
2019-01-28T02:00:07.723Z,984.29
2019-01-28T02:01:07.672Z,984.23
2019-01-28T02:02:07.624Z,984.33
2019-01-28T02:03:07.573Z,984.27
2019-01-28T02:04:07.524Z,984.35
2019-01-28T02:05:07.471Z,984.45
2019-01-28T02:06:07.424Z,984.29
2019-01-28T02:07:07.369Z,984.23
2019-01-28T02:08:07.325Z,984.51
2019-01-28T02:09:07.270Z,984.17
2019-01-28T02:10:07.225Z,984.31
2019-01-28T02:11:07.172Z,984.33
2019-01-28T02:12:07.123Z,984.31
2019-01-28T02:13:07.071Z,984.31
2019-01-28T02:14:07.025Z,984.35
2019-01-28T02:15:06.971Z,984.22
2019-01-28T02:16:06.930Z,984.28
2019-01-28T02:17:06.890Z,984.23
2019-01-28T02:18:06.826Z,984.26
2019-01-28T02:19:06.770Z,984.24
2019-01-28T02:20:06.718Z,984.16
2019-01-28T02:21:06.668Z,984.17
2019-01-28T02:22:06.616Z,984.21
2019-01-28T02:23:06.568Z,984.18
2019-01-28T02:24:06.522Z,984.17
2019-01-28T02:25:06.465Z,984.18
2019-01-28T02:26:06.416Z,984.22
2019-01-28T02:27:06.367Z,984.30
2019-01-28T02:28:06.317Z,984.19
2019-01-28T02:29:06.264Z,984.24
2019-01-28T02:30:06.216Z,984.24
2019-01-28T02:31:06.167Z,984.24
2019-01-28T02:32:06.115Z,984.22
2019-01-28T02:33:06.068Z,984.27
2019-01-28T02:34:06.012Z,984.24
2019-01-28T02:35:05.969Z,984.18
2019-01-28T02:36:05.917Z,984.20
2019-01-28T02:37:05.863Z,984.20
2019-01-28T02:38:05.813Z,984.15
2019-01-28T02:39:05.763Z,984.19
2019-01-28T02:40:05.717Z,984.17
2019-01-28T02:41:05.663Z,984.24
2019-01-28T02:42:05.615Z,984.19
2019-01-28T02:43:05.563Z,984.11
2019-01-28T02:44:05.510Z,984.20
2019-01-28T02:45:05.460Z,984.14
2019-01-28T02:46:05.415Z,984.16
2019-01-28T02:47:05.359Z,984.18
2019-01-28T02:48:05.318Z,984.21
2019-01-28T02:49:05.260Z,984.28
2019-01-28T02:50:05.215Z,984.12
2019-01-28T02:51:05.166Z,984.14
2019-01-28T02:52:05.110Z,984.10
2019-01-28T02:53:05.057Z,984.13
2019-01-28T02:54:05.012Z,984.13
2019-01-28T02:55:04.969Z,984.13
2019-01-28T02:56:04.923Z,984.07
2019-01-28T02:57:04.882Z,984.17
2019-01-28T02:58:04.805Z,984.05
2019-01-28T02:59:04.757Z,984.14
2019-01-28T03:00:04.711Z,984.05
2019-01-28T03:01:04.658Z,984.05
2019-01-28T03:02:04.613Z,984.06
2019-01-28T03:03:04.554Z,984.09
2019-01-28T03:04:04.504Z,984.08
2019-01-28T03:05:04.451Z,984.03
2019-01-28T03:06:04.404Z,984.02
2019-01-28T03:07:04.352Z,984.04
2019-01-28T03:08:04.304Z,983.97
2019-01-28T03:09:04.257Z,983.98
2019-01-28T03:10:04.206Z,984.00
2019-01-28T03:11:04.153Z,984.01
2019-01-28T03:12:04.104Z,984.01
2019-01-28T03:13:04.053Z,984.02
2019-01-28T03:14:04.013Z,983.99
2019-01-28T03:15:03.949Z,984.05
2019-01-28T03:16:03.924Z,983.99
2019-01-28T03:17:03.850Z,984.00
2019-01-28T03:18:03.805Z,984.03
2019-01-28T03:19:03.847Z,983.97
2019-01-28T03:20:03.700Z,983.98
2019-01-28T03:21:03.646Z,983.99
2019-01-28T03:22:03.601Z,984.03
2019-01-28T03:23:03.544Z,984.05
2019-01-28T03:24:03.506Z,984.07
2019-01-28T03:25:03.445Z,984.02
2019-01-28T03:26:03.392Z,983.94
2019-01-28T03:27:03.343Z,984.02
2019-01-28T03:28:03.298Z,984.05
2019-01-28T03:29:03.241Z,984.00
2019-01-28T03:30:03.192Z,984.02
2019-01-28T03:31:03.148Z,984.05
2019-01-28T03:32:03.095Z,983.99
2019-01-28T03:33:03.153Z,984.01
2019-01-28T03:34:02.989Z,983.93
2019-01-28T03:35:02.936Z,983.98
2019-01-28T03:36:02.894Z,984.00
2019-01-28T03:37:02.842Z,984.01
2019-01-28T03:38:02.799Z,983.85
2019-01-28T03:39:02.758Z,984.01
2019-01-28T03:40:02.684Z,983.89
2019-01-28T03:41:02.635Z,983.85
2019-01-28T03:42:02.584Z,983.93
2019-01-28T03:43:02.531Z,983.91
2019-01-28T03:44:02.481Z,983.91
2019-01-28T03:45:02.437Z,983.95
2019-01-28T03:46:02.382Z,983.91
2019-01-28T03:47:02.329Z,983.90
2019-01-28T03:48:02.283Z,983.94
2019-01-28T03:49:02.230Z,983.97
2019-01-28T03:50:02.178Z,983.89
2019-01-28T03:51:02.127Z,983.82
2019-01-28T03:52:02.082Z,983.84
2019-01-28T03:53:02.027Z,983.81
2019-01-28T03:54:01.976Z,983.85
2019-01-28T03:55:01.925Z,983.90
2019-01-28T03:56:01.874Z,983.94
2019-01-28T03:57:01.823Z,983.91
2019-01-28T03:58:01.773Z,983.87
2019-01-28T03:59:01.724Z,983.88
2019-01-28T04:00:01.671Z,984.06
2019-01-28T04:01:01.624Z,983.94
2019-01-28T04:02:01.567Z,983.83
2019-01-28T04:03:01.520Z,983.84
2019-01-28T04:04:01.479Z,983.88
2019-01-28T04:05:01.416Z,983.87
2019-01-28T04:06:01.370Z,983.89
2019-01-28T04:07:01.316Z,983.87
2019-01-28T04:08:01.277Z,983.92
2019-01-28T04:09:01.215Z,983.81
2019-01-28T04:10:01.165Z,983.86
2019-01-28T04:11:01.118Z,983.90
2019-01-28T04:12:01.066Z,983.89
2019-01-28T04:13:01.013Z,983.87
2019-01-28T04:14:00.962Z,983.83
2019-01-28T04:15:00.911Z,983.81
2019-01-28T04:16:00.862Z,983.88
2019-01-28T04:17:00.810Z,983.85
2019-01-28T04:18:00.760Z,983.81
2019-01-28T04:19:00.707Z,984.00
2019-01-28T04:20:00.664Z,983.86
2019-01-28T04:21:00.606Z,983.80
2019-01-28T04:22:00.557Z,983.84
2019-01-28T04:23:00.514Z,983.80
2019-01-28T04:24:00.459Z,983.80
2019-01-28T04:25:00.408Z,983.81
2019-01-28T04:26:00.354Z,983.84
2019-01-28T04:27:00.303Z,983.81
2019-01-28T04:28:00.256Z,983.80
2019-01-28T04:29:00.202Z,983.82
2019-01-28T04:30:00.343Z,983.93
2019-01-28T04:31:00.105Z,983.84
2019-01-28T04:32:00.050Z,983.85
2019-01-28T04:33:00.000Z,983.93
2019-01-28T04:33:59.950Z,983.91
2019-01-28T04:34:59.899Z,983.87
2019-01-28T04:35:59.851Z,983.88
2019-01-28T04:36:59.797Z,983.88
2019-01-28T04:37:59.752Z,983.91
2019-01-28T04:38:59.697Z,983.93
2019-01-28T04:39:59.647Z,983.88
2019-01-28T04:40:59.597Z,983.84
2019-01-28T04:41:59.547Z,983.85
2019-01-28T04:42:59.503Z,983.88
2019-01-28T04:43:59.446Z,983.88
2019-01-28T04:44:59.394Z,983.80
2019-01-28T04:45:59.342Z,983.85
2019-01-28T04:46:59.293Z,983.88
2019-01-28T04:47:59.242Z,983.82
2019-01-28T04:48:59.192Z,983.89
2019-01-28T04:49:59.141Z,983.88
2019-01-28T04:50:59.091Z,983.84
2019-01-28T04:51:59.041Z,983.84
2019-01-28T04:52:58.990Z,983.86
2019-01-28T04:53:58.946Z,983.84
2019-01-28T04:54:58.913Z,983.86
2019-01-28T04:55:58.851Z,983.91
2019-01-28T04:56:58.794Z,983.85
2019-01-28T04:57:58.736Z,983.95
2019-01-28T04:58:58.688Z,983.92
2019-01-28T04:59:58.641Z,983.92
2019-01-28T05:00:58.584Z,983.98
2019-01-28T05:01:58.533Z,983.89
2019-01-28T05:02:58.486Z,983.89
2019-01-28T05:03:58.431Z,983.91
2019-01-28T05:04:58.382Z,984.00
2019-01-28T05:05:58.347Z,983.92
2019-01-28T05:06:58.285Z,983.96
2019-01-28T05:07:58.238Z,983.95
2019-01-28T05:08:58.178Z,983.89
2019-01-28T05:09:58.130Z,983.88
2019-01-28T05:10:58.078Z,983.92
2019-01-28T05:11:58.028Z,983.89
2019-01-28T05:12:57.975Z,983.89
2019-01-28T05:13:57.933Z,983.90
2019-01-28T05:14:57.875Z,983.93
2019-01-28T05:15:57.825Z,983.90
2019-01-28T05:16:57.773Z,983.91
2019-01-28T05:17:57.724Z,983.94
2019-01-28T05:18:57.680Z,983.99
2019-01-28T05:19:57.627Z,983.96
2019-01-28T05:20:57.577Z,983.96
2019-01-28T05:21:57.526Z,983.98
2019-01-28T05:22:57.469Z,983.91
2019-01-28T05:23:57.422Z,983.98
2019-01-28T05:24:57.370Z,983.87
2019-01-28T05:25:57.317Z,983.99
2019-01-28T05:26:57.272Z,983.99
2019-01-28T05:27:57.217Z,984.02
2019-01-28T05:28:57.167Z,984.01
2019-01-28T05:29:57.120Z,984.05
2019-01-28T05:30:57.071Z,984.06
2019-01-28T05:31:57.015Z,984.11
2019-01-28T05:32:56.980Z,984.06
2019-01-28T05:33:56.915Z,984.07
2019-01-28T05:34:56.885Z,984.09
2019-01-28T05:35:56.822Z,984.05
2019-01-28T05:36:56.762Z,984.09
2019-01-28T05:37:56.711Z,984.03
2019-01-28T05:38:56.660Z,983.97
2019-01-28T05:39:56.611Z,984.05
2019-01-28T05:40:56.560Z,984.04
2019-01-28T05:41:56.508Z,984.00
2019-01-28T05:42:56.461Z,984.04
2019-01-28T05:43:56.409Z,984.01
2019-01-28T05:44:56.361Z,984.01
2019-01-28T05:45:56.311Z,984.05
2019-01-28T05:46:56.321Z,984.09
2019-01-28T05:47:56.205Z,984.14
2019-01-28T05:48:56.154Z,984.05
2019-01-28T05:49:56.103Z,984.03
2019-01-28T05:50:56.055Z,984.12
2019-01-28T05:51:56.005Z,984.08
2019-01-28T05:52:55.950Z,984.09
2019-01-28T05:53:55.905Z,984.10
2019-01-28T05:54:55.851Z,984.06
2019-01-28T05:55:55.800Z,984.08
2019-01-28T05:56:55.752Z,984.06
2019-01-28T05:57:55.702Z,984.07
2019-01-28T05:58:55.648Z,984.10
2019-01-28T05:59:55.600Z,984.03
2019-01-28T06:00:55.545Z,984.14
2019-01-28T06:01:55.502Z,984.10
2019-01-28T06:02:55.456Z,984.10
2019-01-28T06:03:55.398Z,984.07
2019-01-28T06:04:55.347Z,984.10
2019-01-28T06:05:55.296Z,984.18
2019-01-28T06:06:55.241Z,984.17
2019-01-28T06:07:55.204Z,984.15
2019-01-28T06:08:55.145Z,984.21
2019-01-28T06:09:55.091Z,984.23
2019-01-28T06:10:55.041Z,984.24
2019-01-28T06:11:54.995Z,984.21
2019-01-28T06:12:54.952Z,984.21
2019-01-28T06:13:54.899Z,984.26
2019-01-28T06:14:54.865Z,984.26
2019-01-28T06:15:54.789Z,984.22
2019-01-28T06:16:54.737Z,984.20
2019-01-28T06:17:54.686Z,984.26
2019-01-28T06:18:54.640Z,984.29
2019-01-28T06:19:54.587Z,984.28
2019-01-28T06:20:54.532Z,984.23
2019-01-28T06:21:54.485Z,984.42
2019-01-28T06:22:54.432Z,984.31
2019-01-28T06:23:54.382Z,984.27
2019-01-28T06:24:54.330Z,984.23
2019-01-28T06:25:54.281Z,984.22
2019-01-28T06:26:54.230Z,984.29
2019-01-28T06:27:54.179Z,984.26
2019-01-28T06:28:54.128Z,984.30
2019-01-28T06:29:54.077Z,984.30
2019-01-28T06:30:54.025Z,984.24
2019-01-28T06:31:53.978Z,984.26
2019-01-28T06:32:53.930Z,984.27
2019-01-28T06:33:53.874Z,984.22
2019-01-28T06:34:53.823Z,984.28
2019-01-28T06:35:53.772Z,984.27
2019-01-28T06:36:53.727Z,984.30
2019-01-28T06:37:53.675Z,984.35
2019-01-28T06:38:53.621Z,984.31
2019-01-28T06:39:53.571Z,984.32
2019-01-28T06:40:53.518Z,984.29
2019-01-28T06:41:53.470Z,984.30
2019-01-28T06:42:53.419Z,984.30
2019-01-28T06:43:53.368Z,984.33
2019-01-28T06:44:53.322Z,984.37
2019-01-28T06:45:53.272Z,984.32
2019-01-28T06:46:53.216Z,984.30
2019-01-28T06:47:53.170Z,984.28
2019-01-28T06:48:53.116Z,984.28
2019-01-28T06:49:53.067Z,984.42
2019-01-28T06:50:53.020Z,984.50
2019-01-28T06:51:52.994Z,984.42
2019-01-28T06:52:52.920Z,984.40
2019-01-28T06:53:52.864Z,984.40
2019-01-28T06:54:52.816Z,984.40
2019-01-28T06:55:52.762Z,984.42
2019-01-28T06:56:52.712Z,984.43
2019-01-28T06:57:52.668Z,984.37
2019-01-28T06:58:52.614Z,984.39
2019-01-28T06:59:52.563Z,984.40
2019-01-28T07:00:52.509Z,984.36
2019-01-28T07:01:52.461Z,984.39
2019-01-28T07:02:52.414Z,984.35
2019-01-28T07:03:52.360Z,984.39
2019-01-28T07:04:52.308Z,984.41
2019-01-28T07:05:52.258Z,984.37
2019-01-28T07:06:52.206Z,984.36
2019-01-28T07:07:52.207Z,984.38
2019-01-28T07:08:52.106Z,984.41
2019-01-28T07:09:52.057Z,984.30
2019-01-28T07:10:52.006Z,984.33
2019-01-28T07:11:51.956Z,984.42
2019-01-28T07:12:51.914Z,984.40
2019-01-28T07:13:51.856Z,984.43
2019-01-28T07:14:51.805Z,984.42
2019-01-28T07:15:51.753Z,984.39
2019-01-28T07:16:51.704Z,984.50
2019-01-28T07:17:54.920Z,984.47
2019-01-28T07:18:51.600Z,984.43
2019-01-28T07:19:51.551Z,984.61
2019-01-28T07:20:51.506Z,984.50
2019-01-28T07:21:51.453Z,984.51
2019-01-28T07:22:51.428Z,984.49
2019-01-28T07:23:51.349Z,984.53
2019-01-28T07:24:51.299Z,984.62
2019-01-28T07:25:51.248Z,984.56
2019-01-28T07:26:51.198Z,984.58
2019-01-28T07:27:51.154Z,984.60
2019-01-28T07:28:51.096Z,984.63
2019-01-28T07:29:51.049Z,984.63
2019-01-28T07:30:50.997Z,984.70
2019-01-28T07:31:50.947Z,984.62
2019-01-28T07:32:50.897Z,984.69
2019-01-28T07:33:50.853Z,984.71
2019-01-28T07:34:50.797Z,984.74
2019-01-28T07:35:50.766Z,984.76
2019-01-28T07:36:50.694Z,984.77
2019-01-28T07:37:50.644Z,984.78
2019-01-28T07:38:50.596Z,984.77
2019-01-28T07:39:50.547Z,984.88
2019-01-28T07:40:50.496Z,984.85
2019-01-28T07:41:50.448Z,984.90
2019-01-28T07:42:50.397Z,984.91
2019-01-28T07:43:50.343Z,984.87
2019-01-28T07:44:50.292Z,984.91
2019-01-28T07:45:50.242Z,984.92
2019-01-28T07:46:50.192Z,984.93
2019-01-28T07:47:50.143Z,984.99
2019-01-28T07:48:50.091Z,984.98
2019-01-28T07:49:50.046Z,985.00
2019-01-28T07:50:49.996Z,985.03
2019-01-28T07:51:49.942Z,985.03
2019-01-28T07:52:49.892Z,985.11
2019-01-28T07:53:49.843Z,985.12
2019-01-28T07:54:49.790Z,985.08
2019-01-28T07:55:49.742Z,985.17
2019-01-28T07:56:49.691Z,985.19
2019-01-28T07:57:49.640Z,985.23
2019-01-28T07:58:49.590Z,985.22
2019-01-28T07:59:49.551Z,985.21
2019-01-28T08:00:49.493Z,985.32
2019-01-28T08:01:49.450Z,985.31
2019-01-28T08:02:49.392Z,985.28
2019-01-28T08:03:49.347Z,985.33
2019-01-28T08:04:49.288Z,985.31
2019-01-28T08:05:49.244Z,985.31
2019-01-28T08:06:49.189Z,985.38
2019-01-28T08:07:49.144Z,985.41
2019-01-28T08:08:49.090Z,985.45
2019-01-28T08:09:49.046Z,985.30
2019-01-28T08:10:48.988Z,985.39
2019-01-28T08:11:48.943Z,985.37
2019-01-28T08:12:51.740Z,985.46
2019-01-28T08:13:48.839Z,985.45
2019-01-28T08:14:48.799Z,985.47
2019-01-28T08:15:48.739Z,985.51
2019-01-28T08:16:48.688Z,985.51
2019-01-28T08:17:48.644Z,985.51
2019-01-28T08:18:48.591Z,985.58
2019-01-28T08:19:48.541Z,985.54
2019-01-28T08:20:48.489Z,985.52
2019-01-28T08:21:48.438Z,985.61
2019-01-28T08:22:48.390Z,985.58
2019-01-28T08:23:48.343Z,985.72
2019-01-28T08:24:48.291Z,985.64
2019-01-28T08:25:48.243Z,985.65
2019-01-28T08:26:48.191Z,985.68
2019-01-28T08:27:48.141Z,985.75
2019-01-28T08:28:48.089Z,985.69
2019-01-28T08:29:48.043Z,985.75
2019-01-28T08:30:47.989Z,985.81
2019-01-28T08:31:47.942Z,985.82
2019-01-28T08:32:47.890Z,985.80
2019-01-28T08:33:47.841Z,985.77
2019-01-28T08:34:49.488Z,985.79
2019-01-28T08:35:47.740Z,985.80
2019-01-28T08:36:47.692Z,985.89
2019-01-28T08:37:47.644Z,985.80
2019-01-28T08:38:47.593Z,985.87
2019-01-28T08:39:47.541Z,985.93
2019-01-28T08:40:47.492Z,985.91
2019-01-28T08:41:47.444Z,985.93
2019-01-28T08:42:47.396Z,985.94
2019-01-28T08:43:47.342Z,985.97
2019-01-28T08:44:47.297Z,985.94
2019-01-28T08:45:47.246Z,986.03
2019-01-28T08:46:47.195Z,986.01
2019-01-28T08:47:47.146Z,986.02
2019-01-28T08:48:47.095Z,986.08
2019-01-28T08:49:47.045Z,986.02
2019-01-28T08:50:46.996Z,986.10
2019-01-28T08:51:46.945Z,986.07
2019-01-28T08:52:46.904Z,986.09
2019-01-28T08:53:46.848Z,986.16
2019-01-28T08:54:46.795Z,986.11
2019-01-28T08:55:46.747Z,986.15
2019-01-28T08:56:46.696Z,986.15
2019-01-28T08:57:46.648Z,986.19
2019-01-28T08:58:46.598Z,986.22
2019-01-28T08:59:46.591Z,986.26
2019-01-28T09:00:46.585Z,986.29
2019-01-28T09:01:46.472Z,986.36
2019-01-28T09:02:46.462Z,986.35
2019-01-28T09:03:46.466Z,986.41
2019-01-28T09:04:46.352Z,986.40
2019-01-28T09:05:46.345Z,986.40
2019-01-28T09:06:46.202Z,986.46
2019-01-28T09:07:46.151Z,986.53
2019-01-28T09:08:46.105Z,986.57
2019-01-28T09:09:46.053Z,986.65
2019-01-28T09:10:46.007Z,986.56
2019-01-28T09:11:45.954Z,986.58
2019-01-28T09:12:47.194Z,986.68
2019-01-28T09:13:45.856Z,986.60
2019-01-28T09:14:45.807Z,986.60
2019-01-28T09:15:45.758Z,986.76
2019-01-28T09:16:45.709Z,986.77
2019-01-28T09:17:45.660Z,986.69
2019-01-28T09:18:45.608Z,986.80
2019-01-28T09:19:45.559Z,986.74
2019-01-28T09:20:45.514Z,986.73
2019-01-28T09:21:45.459Z,986.79
2019-01-28T09:22:45.412Z,986.84
2019-01-28T09:23:45.362Z,986.88
2019-01-28T09:24:45.313Z,986.81
2019-01-28T09:25:45.266Z,986.83
2019-01-28T09:26:45.215Z,986.92
2019-01-28T09:27:45.168Z,986.94
2019-01-28T09:28:45.118Z,987.02
2019-01-28T09:29:45.067Z,987.00
2019-01-28T09:30:45.016Z,987.00
2019-01-28T09:31:44.970Z,987.05
2019-01-28T09:32:44.928Z,987.10
2019-01-28T09:33:44.869Z,987.11
2019-01-28T09:34:44.830Z,987.13
2019-01-28T09:35:44.770Z,987.10
2019-01-28T09:36:44.716Z,987.19
2019-01-28T09:37:44.672Z,987.19
2019-01-28T09:38:44.622Z,987.22
2019-01-28T09:39:44.575Z,987.29
2019-01-28T09:40:44.523Z,987.34
2019-01-28T09:41:44.473Z,987.30
2019-01-28T09:42:44.425Z,987.32
2019-01-28T09:43:44.377Z,987.31
2019-01-28T09:44:44.327Z,987.36
2019-01-28T09:45:44.280Z,987.45
2019-01-28T09:46:44.229Z,987.43
2019-01-28T09:47:44.179Z,987.47
2019-01-28T09:48:44.130Z,987.50
2019-01-28T09:49:44.079Z,987.52
2019-01-28T09:50:44.028Z,987.59
2019-01-28T09:51:43.981Z,987.61
2019-01-28T09:52:43.930Z,987.66
2019-01-28T09:53:43.883Z,987.61
2019-01-28T09:54:43.837Z,987.63
2019-01-28T09:55:43.783Z,987.63
2019-01-28T09:56:43.733Z,987.73
2019-01-28T09:57:43.689Z,987.68
2019-01-28T09:58:43.646Z,987.73
2019-01-28T09:59:43.588Z,987.77
2019-01-28T10:00:43.539Z,987.77
2019-01-28T10:01:43.489Z,987.80
2019-01-28T10:02:43.439Z,987.84
2019-01-28T10:03:43.395Z,987.82
2019-01-28T10:04:43.342Z,987.85
2019-01-28T10:05:43.290Z,987.86
2019-01-28T10:06:43.242Z,987.90
2019-01-28T10:07:43.192Z,987.90
2019-01-28T10:08:43.146Z,987.97
2019-01-28T10:09:43.094Z,987.95
2019-01-28T10:10:43.049Z,987.97
2019-01-28T10:11:43.001Z,987.99
2019-01-28T10:12:42.957Z,988.01
2019-01-28T10:13:42.903Z,988.08
2019-01-28T10:14:42.868Z,988.03
2019-01-28T10:15:42.799Z,988.10
2019-01-28T10:16:42.749Z,988.14
2019-01-28T10:17:42.705Z,988.17
2019-01-28T10:18:42.651Z,988.18
2019-01-28T10:19:42.603Z,988.18
2019-01-28T10:20:44.548Z,988.23
2019-01-28T10:21:42.508Z,988.31
2019-01-28T10:22:42.456Z,988.28
2019-01-28T10:23:42.406Z,988.22
2019-01-28T10:24:42.357Z,988.30
2019-01-28T10:25:42.307Z,988.32
2019-01-28T10:26:42.259Z,988.30
2019-01-28T10:27:42.211Z,988.36
2019-01-28T10:28:42.169Z,988.34
2019-01-28T10:29:42.111Z,988.37
2019-01-28T10:30:42.064Z,988.39
2019-01-28T10:31:42.015Z,988.39
2019-01-28T10:32:41.962Z,988.42
2019-01-28T10:33:41.922Z,988.46
2019-01-28T10:34:41.888Z,988.50
2019-01-28T10:35:41.826Z,988.50
2019-01-28T10:36:41.765Z,988.50
2019-01-28T10:37:41.717Z,988.59
2019-01-28T10:38:41.669Z,988.60
2019-01-28T10:39:41.621Z,988.63
2019-01-28T10:40:41.568Z,988.62
2019-01-28T10:41:41.526Z,988.62
2019-01-28T10:42:41.474Z,988.63
2019-01-28T10:43:41.422Z,988.81
2019-01-28T10:44:41.373Z,988.78
2019-01-28T10:45:41.327Z,988.75
2019-01-28T10:46:41.274Z,988.76
2019-01-28T10:47:41.241Z,988.72
2019-01-28T10:48:41.174Z,988.79
2019-01-28T10:49:41.278Z,988.85
2019-01-28T10:50:41.077Z,988.78
2019-01-28T10:51:41.028Z,988.83
2019-01-28T10:52:40.976Z,988.88
2019-01-28T10:53:40.938Z,988.84
2019-01-28T10:54:40.895Z,988.89
2019-01-28T10:55:40.831Z,988.97
2019-01-28T10:56:40.781Z,988.83
2019-01-28T10:57:40.730Z,988.92
2019-01-28T10:58:40.683Z,988.99
2019-01-28T10:59:40.632Z,988.97
2019-01-28T11:00:40.589Z,988.97
2019-01-28T11:01:40.534Z,989.02
2019-01-28T11:02:40.483Z,989.03
2019-01-28T11:03:40.437Z,989.03
2019-01-28T11:04:40.388Z,988.99
2019-01-28T11:05:40.345Z,989.14
2019-01-28T11:06:40.290Z,989.10
2019-01-28T11:07:40.240Z,989.17
2019-01-28T11:08:40.190Z,989.06
2019-01-28T11:09:40.206Z,989.08
2019-01-28T11:10:40.208Z,989.17
2019-01-28T11:11:40.163Z,989.12
2019-01-28T11:12:39.992Z,989.25
2019-01-28T11:13:40.040Z,989.23
2019-01-28T11:14:39.902Z,989.29
2019-01-28T11:15:39.844Z,989.28
2019-01-28T11:16:39.796Z,989.31
2019-01-28T11:17:39.863Z,989.31
2019-01-28T11:18:39.697Z,989.30
2019-01-28T11:19:39.707Z,989.35
2019-01-28T11:20:39.727Z,989.34
2019-01-28T11:21:39.554Z,989.34
2019-01-28T11:22:39.554Z,989.38
2019-01-28T11:23:39.564Z,989.40
2019-01-28T11:24:39.516Z,989.48
2019-01-28T11:25:39.354Z,989.46
2019-01-28T11:26:39.377Z,989.46
2019-01-28T11:27:39.335Z,989.48
2019-01-28T11:28:39.268Z,989.53
2019-01-28T11:29:39.276Z,989.55
2019-01-28T11:30:39.121Z,989.54
2019-01-28T11:31:39.057Z,989.48
2019-01-28T11:32:39.143Z,989.55
2019-01-28T11:33:39.629Z,989.63
2019-01-28T11:34:38.942Z,989.61
2019-01-28T11:35:38.908Z,989.63
2019-01-28T11:36:38.967Z,989.62
2019-01-28T11:37:38.784Z,989.71
2019-01-28T11:38:38.864Z,989.73
2019-01-28T11:39:38.731Z,989.66
2019-01-28T11:40:38.635Z,989.77
2019-01-28T11:41:38.651Z,989.70
2019-01-28T11:42:40.276Z,989.73
2019-01-28T11:43:38.472Z,989.73
2019-01-28T11:44:38.418Z,989.76
2019-01-28T11:45:38.487Z,989.70
2019-01-28T11:46:38.420Z,989.79
2019-01-28T11:47:38.292Z,989.84
2019-01-28T11:48:38.366Z,989.79
2019-01-28T11:49:38.309Z,989.79
2019-01-28T11:50:38.120Z,989.82
2019-01-28T11:51:38.073Z,989.86
2019-01-28T11:52:38.022Z,989.93
2019-01-28T11:53:37.973Z,989.88
2019-01-28T11:54:37.923Z,989.90
2019-01-28T11:55:37.877Z,989.95
2019-01-28T11:56:37.870Z,989.98
2019-01-28T11:57:37.779Z,990.07
2019-01-28T11:58:37.727Z,989.94
2019-01-28T11:59:37.678Z,990.06
2019-01-28T12:00:37.631Z,990.06
2019-01-28T12:01:37.580Z,990.13
2019-01-28T12:02:37.539Z,990.04
2019-01-28T12:03:37.483Z,990.14
2019-01-28T12:04:37.433Z,990.29
2019-01-28T12:05:37.382Z,990.19
2019-01-28T12:06:37.338Z,990.23
2019-01-28T12:07:37.292Z,990.20
2019-01-28T12:08:37.238Z,990.23
2019-01-28T12:09:37.189Z,990.30
2019-01-28T12:10:37.136Z,990.35
2019-01-28T12:11:37.087Z,990.26
2019-01-28T12:12:37.036Z,990.34
2019-01-28T12:13:36.988Z,990.30
2019-01-28T12:14:36.938Z,990.34
2019-01-28T12:15:36.895Z,990.41
2019-01-28T12:16:36.842Z,990.43
2019-01-28T12:17:36.797Z,990.42
2019-01-28T12:18:36.752Z,990.54
2019-01-28T12:19:36.692Z,990.48
2019-01-28T12:20:36.644Z,990.54
2019-01-28T12:21:36.594Z,990.56
2019-01-28T12:22:36.546Z,990.60
2019-01-28T12:23:36.495Z,990.64
2019-01-28T12:24:36.446Z,990.61
2019-01-28T12:25:36.406Z,990.61
2019-01-28T12:26:36.354Z,990.58
2019-01-28T12:27:36.299Z,990.63